Aviation Digital Data Service (ADDS)

Output produced by METARs form (1922 UTC 18 June 2019)
found at http://www.aviationweather.gov/metar/data/
 
KM08 181920Z AUTO 19007KT 10SM BKN019 BKN120 28/22 A2989 RMK A01
KTRI 181900Z 36005KT 5SM -TSRA BR BKN016CB BKN034 OVC110 22/20 A3001 RMK AO2 LTG DSNT E-SW CONS LTGICCCCG VC E TS VC E MOV E P0004 T02170200
KTRI 181818Z 1818/1918 VRB04KT 4SM -TSRA SCT009 BKN027 OVC050CB 
     FM182000 VRB04KT P6SM -SHRA VCTS OVC027CB 
     TEMPO 1822/1902 4SM -TSRA OVC015CB 
     FM190300 00000KT 5SM BR VCSH SCT025 OVC035 
     FM190700 00000KT 3SM BR FEW009 SCT025 OVC050 
     FM191300 00000KT 6SM BR BKN015 
     PROB30 1915/1918 4SM -TSRA OVC008CB
       
KCHA 181913Z 31005KT 2SM R02/2200VP6000FT +RA BR SCT019 BKN027 OVC250 24/23 A2995 RMK AO2 P0015 T02390233 $
KCHA 181755Z 1818/1918 VRB03KT P6SM VCSH FEW010 SCT025 BKN050 
     FM182000 19005KT P6SM -SHRA VCTS SCT012 BKN020 OVC035CB 
     TEMPO 1821/1901 4SM -TSRA OVC025CB 
     FM190200 VRB03KT 5SM BR VCSH OVC025 
     FM190600 VRB03KT 6SM BR OVC007 
     FM191200 22005KT P6SM VCSH BKN018 
     PROB30 1915/1918 4SM -TSRA OVC008CB
       
KCKV 181852Z AUTO VRB06KT 10SM FEW034 28/22 A2989 RMK AO2 SLP117 T02830217
KCKV 181724Z 1818/1918 20007KT P6SM VCSH BKN035 OVC045 
     FM182200 22004KT P6SM BKN100 
     FM191000 22003KT 5SM BR BKN020 
     FM191300 23006KT P6SM BKN050
       
KM04 181920Z AUTO VRB03KT 10SM SCT029 BKN036 28/21 A2987 RMK A01
KCSV 181853Z AUTO VRB03KT 10SM SCT024 26/19 A3000 RMK AO2 SLP137 T02560189
KCSV 181724Z 1818/1918 18003KT P6SM VCSH SCT015 BKN020 
     FM190200 19003KT P6SM OVC050 
     FM191000 22002KT 4SM BR OVC015 
     FM191400 23005KT P6SM BKN050
       
KM02 181915Z AUTO 23007KT 10SM FEW050 FEW060 26/23 A2991 RMK A01
KDYR 181856Z AUTO 18006KT 10SM FEW028 SCT038 BKN050 28/22 A2989 RMK AO2 SLP132 T02830222 PNO $
K0A9 181920Z AUTO 33008G17KT 5SM -DZ SCT025 BKN032 OVC041 23/20 A3001 RMK AO2
KFYM 181915Z AUTO 21009KT 10SM FEW030 BKN047 OVC065 27/20 A2992 RMK A01
KGCY 181915Z AUTO 00000KT 10SM SCT007 BKN012 BKN070 21/20 A3002 RMK A01
KHZD 181920Z AUTO 22006KT 10SM CLR 28/24 A2988 RMK A01
KJAU 181915Z AUTO VRB05KT 10SM SCT013 BKN020 BKN027 25/22 A3001 RMK A01
KMKL 181853Z 20003KT 10SM FEW018 27/22 A2990 RMK AO2 SLP122 T02670222
KMKL 181732Z 1818/1918 20005KT P6SM VCSH SCT015 BKN025 
     FM182000 23004KT P6SM VCTS SCT025CB BKN060 
     FM190000 21003KT P6SM VCSH SCT030 BKN100 
     FM190600 VRB03KT P6SM SCT020 BKN080 
     TEMPO 1909/1913 4SM BR BKN020 
     FM191400 21008KT P6SM VCSH SCT030 BKN100
       
KDKX 181915Z AUTO 00000KT 10SM SCT008 OVC013 24/23 A2997 RMK A01
KTYS 181905Z 14004KT 6SM -RA BR SCT008 SCT039 OVC055 23/21 A2997 RMK AO2 P0001 T02280211
KTYS 181756Z 1818/1918 VRB04KT 3SM -SHRA VCTS BKN030 OVC050CB 
     TEMPO 1820/1824 4SM -TSRA OVC025CB 
     FM190200 VRB03KT 5SM BR VCSH OVC025 
     FM190700 VRB03KT 5SM BR SCT007 OVC025 
     FM191200 VRB03KT 6SM BR VCSH BKN015 
     PROB30 1915/1918 4SM -TSRA OVC008CB
       
K2M2 181920Z AUTO 00000KT 10SM FEW048 BKN055 BKN065 24/21 A2992 RMK A01
KM54 181915Z AUTO 23008KT 210V270 10SM SCT027 SCT033 SCT050 28/22 A2989 RMK A01
KLUG 181915Z AUTO VRB04KT 10SM FEW030 SCT036 BKN075 28/22 A2991 RMK A01
KPVE 181915Z AUTO 21006KT 10SM SCT120 26/21 A2989 RMK A01
K8A3 181915Z AUTO 22004KT 10SM FEW025 SCT041 BKN050 24/21 A2995 RMK A01
KMNV 181915Z AUTO 15004KT 9SM FEW003 FEW026 BKN037 22/22 A2997 RMK A01
KRNC 181915Z AUTO 22007KT 10SM FEW027 SCT034 SCT039 27/21 A2993 RMK A01
KMEM 181854Z 00000KT 10SM SCT024 BKN050 BKN080 28/23 A2989 RMK AO2 SLP118 T02830233 $
KMEM 181849Z 1819/1924 21005KT P6SM VCSH SCT025 BKN045 
     FM182200 23006KT P6SM VCTS SCT030CB BKN060 
     FM190100 22005KT P6SM VCSH SCT030 BKN100 
     FM190600 20004KT P6SM SCT020 BKN050 
     TEMPO 1909/1913 4SM BR BKN020 
     FM191600 22009KT P6SM VCSH SCT030 BKN100
       
KNQA 181850Z 16004KT 10SM SCT026 BKN041 28/23 A2988
KMOR 181915Z AUTO 00000KT 8SM FEW006 22/22 A2998 RMK A01
KMBT 181915Z AUTO VRB06KT 10SM SCT027 BKN033 BKN044 28/22 A2989 RMK A01
KJWN 181920Z AUTO 22009KT 9SM SCT026 SCT032 28/21 A2988 RMK A01
KBNA 181853Z 22006KT 10SM FEW023 SCT032 BKN080 BKN200 28/21 A2992 RMK AO2 SLP124 T02830206
KBNA 181910Z 1819/1918 19007KT P6SM VCSH FEW020 SCT035 
     FM182300 20005KT P6SM BKN100 
     FM191100 22003KT 5SM BR BKN030 
     FM191300 23008KT P6SM BKN050
       
KSCX 181920Z AUTO 14004KT 10SM FEW047 BKN055 OVC060 24/21 A2998 RMK A01
KPHT 181920Z AUTO 19007KT 10SM FEW021 SCT029 BKN035 27/22 A2989 RMK A01
K1M5 181915Z AUTO 21009KT 10SM SCT023 SCT029 BKN050 27/22 A2990 RMK A01
KGZS 181915Z AUTO 00000KT 9SM FEW003 SCT032 BKN060 24/23 A2992 RMK A01
KRKW 181915Z AUTO 15006KT 10SM FEW012 BKN030 OVC100 24/22 A2998 RMK A01
KSNH 181915Z AUTO 14006KT 10SM FEW018 SCT025 28/22 A2988 RMK A01
KSZY 181915Z AUTO VRB03KT 10SM SCT013 BKN018 25/22 A2989 RMK A01
KGKT 181915Z AUTO 00000KT 4SM BR SCT010 BKN029 BKN038 23/22 A2998 RMK A01
KSYI 181920Z AUTO 15007KT 10SM SCT026 BKN032 BKN038 27/22 A2991 RMK A01
KMQY 181856Z 22008KT 9SM SCT026 BKN041 26/22 A2993 RMK AO2 SLP019 T02610222
KMQY 181724Z 1818/1918 20007KT P6SM VCSH BKN020 
     FM182300 20004KT P6SM BKN100 
     FM191000 22003KT 5SM BR BKN030 
     FM191400 23008KT P6SM BKN050
       
KSRB 181920Z AUTO 00000KT 10SM FEW019 SCT025 SCT037 27/21 A2993 RMK A01
KTHA 181915Z AUTO 00000G13KT 7SM FEW016 BKN022 OVC075 24/21 A2993 RMK A01
KUCY 181915Z AUTO 00000KT 10SM SCT047 BKN060 OVC100 28/21 A2987 RMK A01
KBGF 181920Z AUTO 23010KT 10SM SCT032 BKN040 BKN047 28/21 A2993 RMK A01